Time;durP1;ratioP1;P1;durP2;ratioP2;P2;SDS_P1;SDS_P2;PMS_P1;PMS_P2;Temp;Humidity;BMP_temperature;BMP_pressure;BME280_temperature;BME280_humidity;BME280_pressure;Samples;Min_cycle;Max_cycle;Signal;HPM_P1;HPM_P2
2021/04/24 00:01:30;;;;;;;0.70;0.70;;;2.80;99.90;;;;;;5050751;28;20201;-80
2021/04/24 00:03:58;;;;;;;0.60;0.60;;;2.80;99.90;;;;;;5050667;28;20452;-80
2021/04/24 00:06:24;;;;;;;0.60;0.60;;;2.80;99.90;;;;;;5050910;28;20238;-80
2021/04/24 00:08:51;;;;;;;0.60;0.60;;;2.70;99.90;;;;;;5051257;28;20266;-80
2021/04/24 00:11:17;;;;;;;0.60;0.60;;;2.70;99.90;;;;;;5050534;28;20235;-80
2021/04/24 00:13:43;;;;;;;0.60;0.60;;;2.70;99.90;;;;;;5050976;28;20204;-80
2021/04/24 00:16:10;;;;;;;0.60;0.60;;;2.70;99.90;;;;;;5050544;28;20204;-79
2021/04/24 00:18:36;;;;;;;0.60;0.60;;;2.70;99.90;;;;;;5050458;28;20228;-79
2021/04/24 00:21:03;;;;;;;0.60;0.60;;;2.60;99.90;;;;;;5050769;28;20201;-79
2021/04/24 00:23:29;;;;;;;0.60;0.60;;;2.60;99.90;;;;;;5050244;28;20208;-79
2021/04/24 00:25:56;;;;;;;0.60;0.60;;;2.50;99.90;;;;;;5050610;28;20232;-80
2021/04/24 00:28:22;;;;;;;0.50;0.50;;;2.50;99.90;;;;;;5050208;28;20663;-80
2021/04/24 00:30:48;;;;;;;0.60;0.60;;;2.40;99.90;;;;;;5050447;28;20415;-80
2021/04/24 00:33:14;;;;;;;0.60;0.60;;;2.40;99.90;;;;;;5050455;28;20601;-80
2021/04/24 00:35:40;;;;;;;0.60;0.60;;;2.40;99.90;;;;;;5050394;28;20211;-80
2021/04/24 00:38:08;;;;;;;0.60;0.60;;;2.30;99.90;;;;;;5050406;28;20321;-80
2021/04/24 00:40:34;;;;;;;0.60;0.60;;;2.30;99.90;;;;;;5050535;28;20204;-80
2021/04/24 00:43:01;;;;;;;0.60;0.60;;;2.50;99.90;;;;;;5049853;28;20207;-80
2021/04/24 00:45:28;;;;;;;0.60;0.60;;;2.40;99.90;;;;;;5049952;28;20708;-80
2021/04/24 00:47:57;;;;;;;0.60;0.60;;;2.50;99.90;;;;;;5049843;28;20232;-80
2021/04/24 00:50:26;;;;;;;0.60;0.60;;;2.60;99.90;;;;;;5049742;28;20204;-80
2021/04/24 00:52:52;;;;;;;0.60;0.60;;;2.60;99.90;;;;;;5050361;28;20240;-80
2021/04/24 00:55:19;;;;;;;0.60;0.60;;;2.60;99.90;;;;;;5050007;28;20604;-80
2021/04/24 00:57:46;;;;;;;0.50;0.50;;;2.70;99.90;;;;;;5049666;28;20251;-80
2021/04/24 01:00:17;;;;;;;0.60;0.60;;;2.60;99.90;;;;;;5050057;28;20596;-80
2021/04/24 01:02:43;;;;;;;0.60;0.60;;;2.60;99.90;;;;;;5050140;28;20204;-81
2021/04/24 01:05:15;;;;;;;0.60;0.60;;;2.60;99.90;;;;;;5049681;28;20618;-80
2021/04/24 01:07:42;;;;;;;0.60;0.60;;;2.50;99.90;;;;;;5049608;28;20232;-80
2021/04/24 01:10:10;;;;;;;0.60;0.60;;;2.50;99.90;;;;;;5047922;28;20208;-80
2021/04/24 01:12:38;;;;;;;0.60;0.60;;;2.50;99.90;;;;;;5049444;28;20230;-80
2021/04/24 01:15:06;;;;;;;0.60;0.60;;;2.50;99.90;;;;;;5050306;28;20208;-80
2021/04/24 01:17:32;;;;;;;0.60;0.60;;;2.50;99.90;;;;;;5050284;28;20227;-80
2021/04/24 01:19:58;;;;;;;0.60;0.60;;;2.40;99.90;;;;;;5050426;28;20200;-80
2021/04/24 01:22:25;;;;;;;0.60;0.60;;;2.40;99.90;;;;;;5050022;28;20635;-80
2021/04/24 01:24:52;;;;;;;0.60;0.60;;;2.40;99.90;;;;;;5050527;28;20623;-80
2021/04/24 01:27:18;;;;;;;0.60;0.60;;;2.40;99.90;;;;;;5050078;28;20263;-80
2021/04/24 01:29:44;;;;;;;0.60;0.60;;;2.40;99.90;;;;;;5050014;28;20262;-80
2021/04/24 01:32:11;;;;;;;0.60;0.60;;;2.40;99.90;;;;;;5050410;28;20223;-80
2021/04/24 01:34:37;;;;;;;0.60;0.60;;;2.30;99.90;;;;;;5049995;28;20734;-80
2021/04/24 01:37:04;;;;;;;0.60;0.60;;;2.30;99.90;;;;;;5050247;28;20224;-80
2021/04/24 01:39:31;;;;;;;0.60;0.60;;;2.30;99.90;;;;;;5049818;28;20763;-80
2021/04/24 01:41:58;;;;;;;0.60;0.60;;;2.40;99.90;;;;;;5049975;28;20437;-80
2021/04/24 01:44:25;;;;;;;0.60;0.60;;;2.30;99.90;;;;;;5049917;28;20204;-80
2021/04/24 01:46:51;;;;;;;0.60;0.60;;;2.30;99.90;;;;;;5049893;28;20596;-80
2021/04/24 01:49:17;;;;;;;0.60;0.60;;;2.30;99.90;;;;;;5049653;28;20246;-80
2021/04/24 01:51:44;;;;;;;0.60;0.60;;;2.20;99.90;;;;;;5050163;28;20277;-80
2021/04/24 01:54:11;;;;;;;0.60;0.60;;;2.20;99.90;;;;;;5049566;28;20208;-80
2021/04/24 01:56:46;;;;;;;0.60;0.60;;;2.20;99.90;;;;;;5049585;28;20215;-80
2021/04/24 01:59:13;;;;;;;0.60;0.60;;;2.20;99.90;;;;;;5049177;28;20224;-80
2021/04/24 02:01:40;;;;;;;0.57;0.57;;;2.10;99.90;;;;;;5049754;28;20214;-80
2021/04/24 02:04:06;;;;;;;0.60;0.60;;;2.10;99.90;;;;;;5049445;28;20208;-80
2021/04/24 02:06:33;;;;;;;0.60;0.60;;;2.10;99.90;;;;;;5049466;28;20258;-80
2021/04/24 02:08:59;;;;;;;0.60;0.60;;;2.10;99.90;;;;;;5049635;28;20208;-80
2021/04/24 02:11:28;;;;;;;0.60;0.60;;;2.00;99.90;;;;;;5049257;28;20200;-80
2021/04/24 02:13:55;;;;;;;0.50;0.50;;;2.10;99.90;;;;;;5049486;28;20204;-80
2021/04/24 02:16:22;;;;;;;0.60;0.60;;;2.00;99.90;;;;;;5049584;28;20204;-80
2021/04/24 02:18:48;;;;;;;0.60;0.60;;;1.90;99.90;;;;;;5049381;28;20220;-80
2021/04/24 02:21:14;;;;;;;0.60;0.60;;;1.90;99.90;;;;;;5049472;28;20204;-80
2021/04/24 02:23:40;;;;;;;0.57;0.57;;;1.90;99.90;;;;;;5049667;28;20215;-81
2021/04/24 02:26:08;;;;;;;0.60;0.60;;;1.80;99.90;;;;;;5049268;28;20247;-81
2021/04/24 02:28:34;;;;;;;0.60;0.60;;;1.70;99.90;;;;;;5049282;28;20724;-81
2021/04/24 02:31:01;;;;;;;0.50;0.50;;;1.70;99.90;;;;;;5049093;28;20215;-80
2021/04/24 02:33:27;;;;;;;0.60;0.60;;;1.70;99.90;;;;;;5049107;28;20685;-80
2021/04/24 02:35:55;;;;;;;0.60;0.60;;;1.70;99.90;;;;;;5049347;28;20208;-80
2021/04/24 02:38:23;;;;;;;0.60;0.60;;;1.70;99.90;;;;;;5049087;28;20278;-81
2021/04/24 02:40:51;;;;;;;0.60;0.60;;;1.80;99.90;;;;;;5049250;28;20204;-80
2021/04/24 02:43:17;;;;;;;0.60;0.60;;;1.90;99.90;;;;;;5049243;28;20204;-81
2021/04/24 02:45:44;;;;;;;0.60;0.60;;;1.80;99.90;;;;;;5048991;28;20496;-81
2021/04/24 02:48:12;;;;;;;0.60;0.60;;;1.80;99.90;;;;;;5049133;28;20710;-81
2021/04/24 02:50:38;;;;;;;0.60;0.60;;;1.70;99.90;;;;;;5049365;28;20211;-81
2021/04/24 02:53:05;;;;;;;0.60;0.60;;;1.60;99.90;;;;;;5048893;28;20210;-81
2021/04/24 02:55:31;;;;;;;0.60;0.60;;;1.50;99.90;;;;;;5049165;28;20208;-81
2021/04/24 02:57:58;;;;;;;0.60;0.60;;;1.50;99.90;;;;;;5049067;28;20593;-81
2021/04/24 03:00:25;;;;;;;0.60;0.60;;;1.50;99.90;;;;;;5048773;28;20471;-81
2021/04/24 03:03:01;;;;;;;0.60;0.60;;;1.60;99.90;;;;;;5049227;28;20277;-81
2021/04/24 03:05:28;;;;;;;0.60;0.60;;;1.60;99.90;;;;;;5049122;28;20211;-82
2021/04/24 03:07:54;;;;;;;0.57;0.57;;;1.60;99.90;;;;;;5051080;28;20222;-81
2021/04/24 03:10:20;;;;;;;0.60;0.60;;;1.50;99.90;;;;;;5052465;28;20196;-81
2021/04/24 03:12:46;;;;;;;0.55;0.55;;;1.50;99.90;;;;;;5052857;28;20204;-81
2021/04/24 03:15:13;;;;;;;0.60;0.60;;;1.50;99.90;;;;;;5052559;28;20212;-81
2021/04/24 03:17:39;;;;;;;0.60;0.60;;;1.30;99.90;;;;;;5052663;28;20224;-81
2021/04/24 03:20:08;;;;;;;0.60;0.60;;;1.30;99.90;;;;;;5052888;28;20559;-81
2021/04/24 03:22:35;;;;;;;0.60;0.60;;;1.40;99.90;;;;;;5052327;28;20215;-81
2021/04/24 03:25:01;;;;;;;0.60;0.60;;;1.30;99.90;;;;;;5052854;28;20204;-81
2021/04/24 03:27:27;;;;;;;0.60;0.60;;;1.30;99.90;;;;;;5052330;28;20235;-81
2021/04/24 03:29:53;;;;;;;0.60;0.60;;;1.30;99.90;;;;;;5052447;28;20724;-81
2021/04/24 03:32:19;;;;;;;0.60;0.60;;;1.30;99.90;;;;;;5052571;28;20211;-81
2021/04/24 03:34:46;;;;;;;0.60;0.60;;;1.30;99.90;;;;;;5052125;28;20208;-81
2021/04/24 03:37:12;;;;;;;0.52;0.52;;;1.20;99.90;;;;;;5052574;28;20209;-81
2021/04/24 03:39:39;;;;;;;0.60;0.60;;;1.20;99.90;;;;;;5052142;28;20228;-81
2021/04/24 03:42:06;;;;;;;0.60;0.60;;;1.30;99.90;;;;;;5051981;28;20239;-81
2021/04/24 03:44:32;;;;;;;0.60;0.60;;;1.20;99.90;;;;;;5052264;28;20258;-81
2021/04/24 03:46:58;;;;;;;0.60;0.60;;;1.20;99.90;;;;;;5051935;28;20236;-81
2021/04/24 03:49:25;;;;;;;0.60;0.60;;;1.20;99.90;;;;;;5051872;28;20200;-81
2021/04/24 03:51:51;;;;;;;0.60;0.60;;;1.30;99.90;;;;;;5052411;28;20200;-81
2021/04/24 03:54:17;;;;;;;0.55;0.55;;;1.30;99.90;;;;;;5051737;28;20212;-81
2021/04/24 03:56:44;;;;;;;0.60;0.60;;;1.20;99.90;;;;;;5052323;28;20215;-81
2021/04/24 03:59:10;;;;;;;0.60;0.60;;;1.20;99.90;;;;;;5051799;28;20707;-81
2021/04/24 04:01:36;;;;;;;0.60;0.60;;;1.30;99.90;;;;;;5051630;28;20277;-80
2021/04/24 04:04:02;;;;;;;0.60;0.60;;;1.20;99.90;;;;;;5051998;28;20211;-81
2021/04/24 04:06:28;;;;;;;0.60;0.60;;;1.20;99.90;;;;;;5051468;28;20605;-80
2021/04/24 04:08:55;;;;;;;0.60;0.60;;;1.30;99.90;;;;;;5051969;28;20200;-81
2021/04/24 04:11:21;;;;;;;0.60;0.60;;;1.20;99.90;;;;;;5051619;28;20616;-81
2021/04/24 04:13:48;;;;;;;0.60;0.60;;;1.10;99.90;;;;;;5051543;28;20211;-81
2021/04/24 04:16:14;;;;;;;0.60;0.60;;;1.10;99.90;;;;;;5051867;28;20628;-81
2021/04/24 04:18:40;;;;;;;0.60;0.60;;;1.20;99.90;;;;;;5051140;28;20593;-79
2021/04/24 04:21:06;;;;;;;0.60;0.60;;;1.20;99.90;;;;;;5051606;28;20305;-80
2021/04/24 04:23:33;;;;;;;0.60;0.60;;;1.20;99.90;;;;;;5051402;28;20234;-80
2021/04/24 04:25:59;;;;;;;0.60;0.60;;;1.10;99.90;;;;;;5051447;28;20224;-81
2021/04/24 04:28:26;;;;;;;0.60;0.60;;;1.20;99.90;;;;;;5051388;28;20211;-81
2021/04/24 04:30:54;;;;;;;0.60;0.60;;;1.20;99.90;;;;;;5051349;28;20204;-81
2021/04/24 04:33:21;;;;;;;0.60;0.60;;;1.30;99.90;;;;;;5051269;28;20215;-81
2021/04/24 04:35:49;;;;;;;0.60;0.60;;;1.40;99.90;;;;;;5051379;28;20216;-80
2021/04/24 04:38:15;;;;;;;0.60;0.60;;;1.40;99.90;;;;;;5051094;28;20224;-81
2021/04/24 04:40:42;;;;;;;0.60;0.60;;;1.50;99.90;;;;;;5050894;28;20696;-82
2021/04/24 04:43:09;;;;;;;0.60;0.60;;;1.60;99.90;;;;;;5051257;28;20204;-81
2021/04/24 04:45:35;;;;;;;0.60;0.60;;;1.70;99.90;;;;;;5050755;28;20716;-81
2021/04/24 04:48:03;;;;;;;0.60;0.60;;;1.70;99.90;;;;;;5051137;28;20232;-80
2021/04/24 04:50:31;;;;;;;0.60;0.60;;;1.80;99.90;;;;;;5051247;28;20302;-81
2021/04/24 04:52:58;;;;;;;0.60;0.60;;;1.90;99.90;;;;;;5050846;28;20207;-81
2021/04/24 04:55:25;;;;;;;0.60;0.60;;;1.90;99.90;;;;;;5050781;28;20211;-81
2021/04/24 04:57:51;;;;;;;0.50;0.50;;;2.00;99.90;;;;;;5051010;28;20232;-81
2021/04/24 05:00:21;;;;;;;0.60;0.60;;;2.10;99.90;;;;;;5050511;28;20678;-81
2021/04/24 05:02:47;;;;;;;0.60;0.60;;;2.20;99.90;;;;;;5050756;28;20208;-81
2021/04/24 05:05:17;;;;;;;0.60;0.60;;;2.20;99.90;;;;;;5050948;28;20603;-81
2021/04/24 05:07:43;;;;;;;0.60;0.60;;;2.20;99.90;;;;;;5050505;28;20207;-82
2021/04/24 05:10:11;;;;;;;0.50;0.50;;;2.30;99.90;;;;;;5050566;28;20234;-81
2021/04/24 05:12:37;;;;;;;0.60;0.60;;;2.40;99.90;;;;;;5050464;28;20208;-81
2021/04/24 05:15:05;;;;;;;0.60;0.60;;;2.50;99.90;;;;;;5050349;28;20208;-81
2021/04/24 05:17:31;;;;;;;0.50;0.50;;;2.50;99.90;;;;;;5050196;28;20627;-82
2021/04/24 05:19:57;;;;;;;0.50;0.50;;;2.60;99.90;;;;;;5050635;28;20258;-82
2021/04/24 05:22:24;;;;;;;0.60;0.60;;;2.70;99.90;;;;;;5050175;28;20511;-82
2021/04/24 05:24:50;;;;;;;0.60;0.60;;;2.70;99.90;;;;;;5050416;28;20658;-82
2021/04/24 05:27:16;;;;;;;0.60;0.60;;;2.80;99.90;;;;;;5049958;28;20220;-81
2021/04/24 05:29:42;;;;;;;0.60;0.60;;;2.90;99.90;;;;;;5049465;28;20197;-81
2021/04/24 05:32:09;;;;;;;0.60;0.60;;;3.00;99.90;;;;;;5050477;28;20212;-82
2021/04/24 05:34:35;;;;;;;0.60;0.60;;;3.00;99.90;;;;;;5049813;28;20205;-81
2021/04/24 05:37:01;;;;;;;0.55;0.55;;;3.10;99.90;;;;;;5050235;28;20466;-83
2021/04/24 05:39:28;;;;;;;0.60;0.60;;;3.10;99.90;;;;;;5049811;28;20224;-84
2021/04/24 05:41:54;;;;;;;0.60;0.60;;;3.10;99.90;;;;;;5049873;28;20270;-84
2021/04/24 05:44:21;;;;;;;0.60;0.60;;;3.20;99.90;;;;;;5050257;28;20204;-81
2021/04/24 05:46:47;;;;;;;0.50;0.50;;;3.30;99.90;;;;;;5049474;28;20248;-81
2021/04/24 05:49:13;;;;;;;0.57;0.57;;;3.40;99.90;;;;;;5050245;28;20230;-82
2021/04/24 05:51:39;;;;;;;0.60;0.60;;;3.60;99.90;;;;;;5049789;28;20205;-81
2021/04/24 05:54:05;;;;;;;0.50;0.50;;;3.60;99.90;;;;;;5052097;28;20204;-83
2021/04/24 05:56:32;;;;;;;0.57;0.57;;;3.80;99.90;;;;;;5049770;28;20249;-80
2021/04/24 05:58:58;;;;;;;0.50;0.50;;;4.00;99.90;;;;;;5049326;28;20236;-80
2021/04/24 06:01:25;;;;;;;0.60;0.60;;;4.00;99.90;;;;;;5049722;28;20554;-80
2021/04/24 06:03:53;;;;;;;0.60;0.60;;;4.10;99.90;;;;;;5049546;28;20215;-79
2021/04/24 06:06:19;;;;;;;0.60;0.60;;;4.10;99.90;;;;;;5049526;28;20200;-83
2021/04/24 06:08:45;;;;;;;0.60;0.60;;;4.20;99.90;;;;;;5049798;28;20731;-83
2021/04/24 06:11:11;;;;;;;0.60;0.60;;;4.30;99.90;;;;;;5049687;28;20204;-84
2021/04/24 06:13:38;;;;;;;0.60;0.60;;;4.40;99.90;;;;;;5049501;28;20253;-83
2021/04/24 06:16:06;;;;;;;0.60;0.60;;;4.50;99.90;;;;;;5053926;28;20204;-86
2021/04/24 06:18:32;;;;;;;0.60;0.60;;;4.60;99.90;;;;;;5052589;28;20216;-83
2021/04/24 06:20:58;;;;;;;0.60;0.60;;;4.60;99.90;;;;;;5049859;28;20552;-80
2021/04/24 06:23:24;;;;;;;0.60;0.60;;;4.70;99.90;;;;;;5049578;28;20196;-82
2021/04/24 06:25:50;;;;;;;0.60;0.60;;;4.80;99.90;;;;;;5049406;28;20231;-82
2021/04/24 06:28:17;;;;;;;0.60;0.60;;;4.90;99.90;;;;;;5049689;28;20246;-83
2021/04/24 06:30:43;;;;;;;0.60;0.60;;;4.80;99.90;;;;;;5049350;28;20204;-87
2021/04/24 06:33:10;;;;;;;0.60;0.60;;;4.90;99.90;;;;;;5049485;28;20215;-82
2021/04/24 06:35:36;;;;;;;0.60;0.60;;;5.00;99.90;;;;;;5051681;28;20211;-85
2021/04/24 06:38:02;;;;;;;0.60;0.60;;;5.20;99.90;;;;;;5049652;28;20949;-82
2021/04/24 06:40:28;;;;;;;0.57;0.57;;;5.30;99.90;;;;;;5049589;28;20215;-82
2021/04/24 06:42:55;;;;;;;0.60;0.60;;;5.50;99.90;;;;;;5051204;28;20200;-82
2021/04/24 06:45:22;;;;;;;0.50;0.50;;;5.50;99.90;;;;;;5053586;28;20208;-83
2021/04/24 06:47:49;;;;;;;0.60;0.60;;;5.70;99.90;;;;;;5053368;28;20713;-82
2021/04/24 06:50:27;;;;;;;0.60;0.60;;;5.80;99.90;;;;;;5102957;22;20236;-83
2021/04/24 07:03:16;;;;;;;0.60;0.60;;;;;;;;;;4991534;22;20686;-79
2021/04/24 07:05:43;;;;;;;0.50;0.50;;;6.10;99.90;;;;;;5108618;28;20734;-78
2021/04/24 07:08:09;;;;;;;0.60;0.60;;;6.00;99.90;;;;;;5114014;28;20209;-78
2021/04/24 07:10:35;;;;;;;0.60;0.60;;;6.10;99.90;;;;;;5113726;28;20198;-77
2021/04/24 07:13:01;;;;;;;0.50;0.50;;;6.00;99.90;;;;;;5113838;28;20216;-78
2021/04/24 07:15:27;;;;;;;0.60;0.60;;;6.20;99.90;;;;;;5113639;28;20194;-77
2021/04/24 07:17:54;;;;;;;0.50;0.50;;;6.30;99.90;;;;;;5113778;28;20210;-77
2021/04/24 07:20:20;;;;;;;0.60;0.60;;;6.40;99.90;;;;;;5113555;28;20661;-77
2021/04/24 07:22:48;;;;;;;0.60;0.60;;;6.40;99.90;;;;;;5113411;28;20660;-79
2021/04/24 07:25:14;;;;;;;0.60;0.60;;;6.40;99.90;;;;;;5113910;28;20202;-79
2021/04/24 07:27:43;;;;;;;0.60;0.60;;;7.00;99.90;;;;;;5113161;28;20264;-79
2021/04/24 07:30:12;;;;;;;0.60;0.60;;;6.40;99.90;;;;;;5113445;28;20214;-79
2021/04/24 07:32:38;;;;;;;0.50;0.50;;;6.40;99.90;;;;;;5113763;28;20570;-80
2021/04/24 07:35:06;;;;;;;0.60;0.60;;;6.50;99.90;;;;;;5113648;28;20251;-78
2021/04/24 07:37:32;;;;;;;0.60;0.60;;;6.60;99.90;;;;;;5113400;28;20202;-77
2021/04/24 07:40:00;;;;;;;0.60;0.60;;;6.60;99.90;;;;;;5113249;28;20230;-77
2021/04/24 07:42:26;;;;;;;0.60;0.60;;;6.80;99.90;;;;;;5113566;28;20206;-78
2021/04/24 07:44:52;;;;;;;0.50;0.50;;;6.70;99.90;;;;;;5113791;28;20202;-80
2021/04/24 07:47:18;;;;;;;0.60;0.60;;;6.60;99.90;;;;;;5107473;28;20241;-81
2021/04/24 07:49:45;;;;;;;0.55;0.55;;;6.60;99.90;;;;;;5111952;28;20206;-79
2021/04/24 07:52:12;;;;;;;0.60;0.60;;;6.70;99.90;;;;;;5112261;28;20557;-80
2021/04/24 07:54:42;;;;;;;0.60;0.60;;;6.70;99.90;;;;;;5111935;28;20207;-85
2021/04/24 07:57:09;;;;;;;0.60;0.60;;;6.60;99.90;;;;;;5111688;28;20207;-82
2021/04/24 07:59:35;;;;;;;0.60;0.60;;;6.60;99.90;;;;;;5111710;28;20217;-83
2021/04/24 08:02:01;;;;;;;0.60;0.60;;;6.60;99.90;;;;;;5110175;28;20206;-84
2021/04/24 08:04:28;;;;;;;0.60;0.60;;;6.80;99.90;;;;;;5110146;28;20604;-84
2021/04/24 08:06:54;;;;;;;0.60;0.60;;;6.90;99.90;;;;;;5109168;28;20708;-84
2021/04/24 08:09:20;;;;;;;0.60;0.60;;;7.10;99.90;;;;;;5109706;28;20576;-85
2021/04/24 08:11:46;;;;;;;0.60;0.60;;;7.30;99.90;;;;;;5108626;28;20205;-84
2021/04/24 08:14:17;;;;;;;0.60;0.60;;;7.30;99.90;;;;;;5110408;28;20194;-84
2021/04/24 08:16:43;;;;;;;0.50;0.50;;;7.30;99.90;;;;;;5111583;28;20201;-84
2021/04/24 08:19:14;;;;;;;0.50;0.50;;;7.30;99.90;;;;;;5111665;28;20225;-84
2021/04/24 08:21:42;;;;;;;0.60;0.60;;;8.60;99.90;;;;;;5111503;28;20210;-84
2021/04/24 08:24:10;;;;;;;0.60;0.60;;;7.50;99.90;;;;;;5111438;28;20709;-84
2021/04/24 08:26:36;;;;;;;0.60;0.60;;;7.40;99.90;;;;;;5111155;28;20294;-84
2021/04/24 08:29:05;;;;;;;0.60;0.60;;;7.60;99.90;;;;;;5111339;28;20660;-84
2021/04/24 08:31:33;;;;;;;0.60;0.60;;;8.10;99.90;;;;;;5111470;28;20304;-83
2021/04/24 08:34:04;;;;;;;0.57;0.57;;;8.10;99.90;;;;;;5105928;28;20260;-83
2021/04/24 08:36:31;;;;;;;0.60;0.60;;;7.90;99.90;;;;;;5084357;28;20229;-83
2021/04/24 08:38:57;;;;;;;0.60;0.60;;;7.90;99.90;;;;;;5108754;28;20837;-83
2021/04/24 08:41:24;;;;;;;0.60;0.60;;;8.10;99.90;;;;;;5102204;28;20203;-84
2021/04/24 08:43:55;;;;;;;0.60;0.60;;;8.10;99.90;;;;;;5108062;28;20202;-83
2021/04/24 08:46:22;;;;;;;0.60;0.60;;;8.00;99.90;;;;;;5110223;28;20206;-83
2021/04/24 08:48:49;;;;;;;0.60;0.60;;;7.80;99.90;;;;;;5110702;28;20241;-83
2021/04/24 08:51:16;;;;;;;0.60;0.60;;;7.90;99.90;;;;;;5109603;28;20573;-84
2021/04/24 08:53:42;;;;;;;0.60;0.60;;;8.10;99.90;;;;;;5110994;28;20431;-84
2021/04/24 08:56:08;;;;;;;0.57;0.57;;;8.30;99.90;;;;;;5109955;28;20229;-84
2021/04/24 08:58:34;;;;;;;0.50;0.50;;;8.50;99.90;;;;;;5097515;28;20271;-84
2021/04/24 09:01:01;;;;;;;0.60;0.60;;;8.50;99.90;;;;;;5110491;28;20433;-83
2021/04/24 09:03:27;;;;;;;0.60;0.60;;;8.40;99.90;;;;;;5110294;28;20240;-84
2021/04/24 09:05:56;;;;;;;0.60;0.60;;;8.40;99.90;;;;;;5107974;28;20679;-84
2021/04/24 09:08:27;;;;;;;0.60;0.60;;;9.00;99.90;;;;;;5110432;28;20203;-84
2021/04/24 09:10:55;;;;;;;0.60;0.60;;;9.10;99.90;;;;;;5110047;28;20202;-84
2021/04/24 09:13:24;;;;;;;0.60;0.60;;;9.20;99.90;;;;;;5110217;28;20716;-84
2021/04/24 09:15:51;;;;;;;0.50;0.50;;;9.20;99.90;;;;;;5107913;28;20525;-84
2021/04/24 09:18:22;;;;;;;0.60;0.60;;;9.00;99.90;;;;;;5109923;28;20233;-84
2021/04/24 09:20:51;;;;;;;0.60;0.60;;;8.70;99.90;;;;;;5108651;28;20202;-84
2021/04/24 09:23:19;;;;;;;0.60;0.60;;;8.50;99.90;;;;;;5110312;28;20198;-84
2021/04/24 09:25:48;;;;;;;0.60;0.60;;;8.40;99.90;;;;;;5109154;28;20234;-83
2021/04/24 09:28:26;;;;;;;0.50;0.50;;;8.40;99.90;;;;;;5108173;28;20202;-84
2021/04/24 09:30:54;;;;;;;0.50;0.50;;;8.90;99.90;;;;;;5108952;28;20548;-84
2021/04/24 09:33:20;;;;;;;0.60;0.60;;;9.10;99.90;;;;;;5110100;28;20214;-84
2021/04/24 09:35:51;;;;;;;0.50;0.50;;;9.40;99.90;;;;;;5108147;28;20291;-84
2021/04/24 09:38:32;;;;;;;0.60;0.60;;;9.50;99.90;;;;;;5109406;28;20309;-84
2021/04/24 09:41:13;;;;;;;0.60;0.60;;;9.50;99.90;;;;;;5109094;28;20206;-83
2021/04/24 09:43:57;;;;;;;0.60;0.60;;;9.30;99.90;;;;;;5109333;28;20572;-84
2021/04/24 09:46:26;;;;;;;0.60;0.60;;;9.50;99.90;;;;;;5107687;28;20198;-84
2021/04/24 09:49:07;;;;;;;0.50;0.50;;;9.60;99.90;;;;;;5109319;28;20199;-85
2021/04/24 09:51:39;;;;;;;0.60;0.60;;;9.90;99.90;;;;;;5108747;28;20210;-85
2021/04/24 09:54:08;;;;;;;0.60;0.60;;;10.10;99.90;;;;;;5108817;28;20741;-84
2021/04/24 09:56:34;;;;;;;0.60;0.60;;;9.80;99.90;;;;;;5107155;28;20198;-85
2021/04/24 09:59:03;;;;;;;0.60;0.60;;;10.20;99.90;;;;;;5108722;28;20436;-84
2021/04/24 10:01:31;;;;;;;0.60;0.60;;;10.40;99.90;;;;;;5110273;28;20202;-84
2021/04/24 10:03:58;;;;;;;0.60;0.60;;;10.10;99.90;;;;;;5110002;28;20233;-85
2021/04/24 10:06:33;;;;;;;0.60;0.60;;;9.90;99.90;;;;;;5108769;28;20255;-85
2021/04/24 10:09:13;;;;;;;0.57;0.57;;;9.90;99.90;;;;;;5110127;28;20233;-84
2021/04/24 10:11:40;;;;;;;0.60;0.60;;;10.30;99.90;;;;;;5109959;28;20239;-84
2021/04/24 10:14:07;;;;;;;0.60;0.60;;;10.50;99.90;;;;;;5109522;28;20198;-84
2021/04/24 10:16:35;;;;;;;0.50;0.50;;;10.60;99.90;;;;;;5109459;28;20217;-84
2021/04/24 10:19:05;;;;;;;0.52;0.52;;;10.40;99.90;;;;;;5109684;28;20218;-84
2021/04/24 10:21:32;;;;;;;0.60;0.60;;;10.60;99.90;;;;;;5108541;28;20663;-83
2021/04/24 10:23:59;;;;;;;0.60;0.60;;;10.40;99.90;;;;;;5109690;28;20210;-84
2021/04/24 10:26:26;;;;;;;0.60;0.60;;;10.10;99.90;;;;;;5109378;28;20222;-85
2021/04/24 10:28:54;;;;;;;0.60;0.60;;;10.20;99.90;;;;;;5109177;28;20235;-84
2021/04/24 10:31:21;;;;;;;0.60;0.60;;;10.40;99.90;;;;;;5109507;28;20206;-84
2021/04/24 10:33:47;;;;;;;0.60;0.60;;;10.50;99.90;;;;;;5109650;28;20202;-85
2021/04/24 10:36:15;;;;;;;0.60;0.60;;;10.60;99.90;;;;;;5108157;28;20263;-84
2021/04/24 10:38:46;;;;;;;0.60;0.60;;;10.50;99.90;;;;;;5109546;28;20222;-84
2021/04/24 10:41:15;;;;;;;0.60;0.60;;;10.40;99.90;;;;;;5109246;28;20210;-84
2021/04/24 10:43:42;;;;;;;0.60;0.60;;;10.50;99.90;;;;;;5109759;28;20300;-84
2021/04/24 10:46:25;;;;;;;0.60;0.60;;;10.80;99.90;;;;;;5109180;28;20202;-84
2021/04/24 10:49:17;;;;;;;0.55;0.55;;;10.70;99.90;;;;;;5109388;28;20198;-84
2021/04/24 10:51:55;;;;;;;0.60;0.60;;;10.90;99.90;;;;;;5108820;28;20202;-84
2021/04/24 10:54:21;;;;;;;0.60;0.60;;;11.00;99.90;;;;;;5109249;28;20737;-84
2021/04/24 10:56:47;;;;;;;0.60;0.60;;;11.40;99.90;;;;;;5108921;28;20194;-84
2021/04/24 10:59:25;;;;;;;0.60;0.60;;;11.70;99.90;;;;;;5109037;28;20234;-84
2021/04/24 11:02:09;;;;;;;0.60;0.60;;;11.60;99.90;;;;;;5109434;28;20209;-82
2021/04/24 11:04:46;;;;;;;0.60;0.60;;;11.10;99.90;;;;;;5108394;28;20225;-81
2021/04/24 11:07:16;;;;;;;0.55;0.55;;;11.10;99.90;;;;;;5109008;28;20546;-82
2021/04/24 11:09:43;;;;;;;0.60;0.60;;;10.90;99.90;;;;;;5108976;28;20202;-82
2021/04/24 11:12:11;;;;;;;0.60;0.60;;;10.60;99.90;;;;;;5109260;28;20206;-81
2021/04/24 11:14:39;;;;;;;0.60;0.60;;;10.50;99.90;;;;;;5108989;28;20231;-82
2021/04/24 11:17:06;;;;;;;0.60;0.60;;;10.90;99.90;;;;;;5108856;28;20207;-83
2021/04/24 11:19:44;;;;;;;0.60;0.60;;;11.60;99.90;;;;;;5108136;28;20226;-82
2021/04/24 11:22:31;;;;;;;0.60;0.60;;;11.40;99.90;;;;;;5108915;28;20202;-82
2021/04/24 11:25:31;;;;;;;0.60;0.60;;;11.20;99.90;;;;;;5102823;28;20198;-82
2021/04/24 11:28:04;;;;;;;0.60;0.60;;;11.00;99.90;;;;;;5109758;28;20202;-81
2021/04/24 11:30:51;;;;;;;0.60;0.60;;;10.70;99.90;;;;;;5112667;28;20307;-81
2021/04/24 11:33:35;;;;;;;0.60;0.60;;;10.90;99.90;;;;;;5112851;28;20199;-81
2021/04/24 11:36:26;;;;;;;0.60;0.60;;;11.20;99.90;;;;;;5109270;28;20213;-81
2021/04/24 11:39:06;;;;;;;0.60;0.60;;;11.40;99.90;;;;;;5096854;28;20218;-81
2021/04/24 11:41:33;;;;;;;0.50;0.50;;;12.00;99.90;;;;;;5111679;28;20201;-81
2021/04/24 11:44:00;;;;;;;0.60;0.60;;;12.70;99.90;;;;;;5112724;28;20206;-81
2021/04/24 11:46:35;;;;;;;0.60;0.60;;;13.00;99.90;;;;;;5112506;28;20258;-81
2021/04/24 11:49:06;;;;;;;0.50;0.50;;;13.00;99.90;;;;;;5112518;28;20201;-81
2021/04/24 11:51:54;;;;;;;0.55;0.55;;;13.00;99.90;;;;;;5111944;28;20199;-81
2021/04/24 11:54:29;;;;;;;0.60;0.60;;;13.10;99.90;;;;;;5112412;28;20209;-81
2021/04/24 11:56:57;;;;;;;0.60;0.60;;;12.80;99.90;;;;;;5112464;28;20205;-81
2021/04/24 11:59:25;;;;;;;0.60;0.60;;;13.10;99.90;;;;;;5112060;28;20603;-81
2021/04/24 12:01:58;;;;;;;0.60;0.60;;;12.10;99.00;;;;;;5112575;28;20262;-81
2021/04/24 12:04:29;;;;;;;0.60;0.60;;;12.00;99.90;;;;;;5111557;28;20298;-81
2021/04/24 12:07:04;;;;;;;0.60;0.60;;;11.70;99.90;;;;;;5112348;28;20206;-81
2021/04/24 12:09:31;;;;;;;0.60;0.60;;;11.70;99.90;;;;;;5111954;28;20231;-81
2021/04/24 12:11:59;;;;;;;0.60;0.60;;;11.50;98.70;;;;;;5112350;28;20206;-81
2021/04/24 12:14:31;;;;;;;0.60;0.60;;;11.40;99.90;;;;;;5111059;28;20668;-81
2021/04/24 12:17:06;;;;;;;0.60;0.60;;;11.70;99.90;;;;;;5112272;28;20198;-81
2021/04/24 12:19:34;;;;;;;0.60;0.60;;;12.50;99.90;;;;;;5111011;28;20599;-81
2021/04/24 12:22:05;;;;;;;0.60;0.60;;;13.00;99.90;;;;;;5112119;28;20213;-81
2021/04/24 12:24:32;;;;;;;0.60;0.60;;;13.30;99.90;;;;;;5112317;28;20198;-81
2021/04/24 12:26:58;;;;;;;0.57;0.57;;;12.80;99.90;;;;;;5110068;28;20417;-81
2021/04/24 12:29:44;;;;;;;0.60;0.60;;;12.10;98.40;;;;;;5111971;28;20208;-81
2021/04/24 12:32:17;;;;;;;0.60;0.60;;;11.90;99.90;;;;;;5112244;28;20210;-81
2021/04/24 12:34:43;;;;;;;0.60;0.60;;;11.60;99.90;;;;;;5112493;28;20251;-84
2021/04/24 12:37:14;;;;;;;0.60;0.60;;;12.00;98.00;;;;;;5113075;28;20213;-83
2021/04/24 12:39:41;;;;;;;0.60;0.60;;;11.80;97.40;;;;;;5110703;28;20802;-82
2021/04/24 12:42:13;;;;;;;0.60;0.60;;;12.10;96.70;;;;;;5110001;27;20627;-83
2021/04/24 12:44:47;;;;;;;0.60;0.60;;;12.60;98.20;;;;;;5109907;28;20202;-83
2021/04/24 12:47:15;;;;;;;0.60;0.60;;;12.60;96.80;;;;;;5111996;28;20206;-83
2021/04/24 12:49:44;;;;;;;0.60;0.60;;;12.90;96.90;;;;;;5111241;28;20206;-84
2021/04/24 12:52:10;;;;;;;0.50;0.50;;;13.30;99.60;;;;;;5111888;28;20198;-84
2021/04/24 12:54:36;;;;;;;0.60;0.60;;;13.90;98.30;;;;;;5111733;28;20208;-83
2021/04/24 12:57:13;;;;;;;0.60;0.60;;;13.90;97.20;;;;;;5112056;28;20648;-84
2021/04/24 12:59:42;;;;;;;0.60;0.60;;;13.10;94.50;;;;;;5111235;28;20218;-84
2021/04/24 13:02:08;;;;;;;0.60;0.60;;;13.00;94.80;;;;;;5111342;28;20201;-85
2021/04/24 13:04:35;;;;;;;0.60;0.60;;;13.40;97.00;;;;;;5108983;28;20693;-85
2021/04/24 13:07:04;;;;;;;0.60;0.60;;;14.30;97.40;;;;;;5111770;28;20198;-85
2021/04/24 13:09:35;;;;;;;0.60;0.60;;;14.60;94.60;;;;;;5111465;28;20209;-85
2021/04/24 13:12:09;;;;;;;0.60;0.60;;;14.20;95.10;;;;;;5111788;28;20209;-85